Time;durP1;ratioP1;P1;durP2;ratioP2;P2;SDS_P1;SDS_P2;PMS_P1;PMS_P2;Temp;Humidity;BMP_temperature;BMP_pressure;BME280_temperature;BME280_humidity;BME280_pressure;Samples;Min_cycle;Max_cycle;Signal;HPM_P1;HPM_P2
2023/04/11 00:01:31;;;;;;;3.33;1.17;;;13.10;90.80;;;12.76;62.13;96843.81;5034768;28;20047;-38
2023/04/11 00:03:57;;;;;;;2.03;1.35;;;13.10;91.00;;;12.77;61.30;96846.38;5034802;28;20068;-38
2023/04/11 00:06:24;;;;;;;3.22;1.20;;;13.10;90.80;;;12.78;61.31;96820.78;5037225;28;20144;-38
2023/04/11 00:08:51;;;;;;;5.72;1.30;;;13.10;90.90;;;12.86;60.91;96810.59;5034077;28;20040;-38
2023/04/11 00:11:17;;;;;;;2.47;1.25;;;13.10;90.90;;;12.83;61.09;96794.94;5035633;28;20140;-38
2023/04/11 00:13:44;;;;;;;2.78;1.40;;;13.10;90.90;;;12.90;60.66;96785.72;5034255;28;20190;-38
2023/04/11 00:16:10;;;;;;;2.20;1.17;;;13.20;90.90;;;12.85;60.63;96785.09;5031932;28;20039;-38
2023/04/11 00:18:38;;;;;;;2.05;1.00;;;13.20;90.80;;;12.85;61.01;96769.22;5032550;28;20036;-38
2023/04/11 00:21:06;;;;;;;2.58;1.20;;;13.10;91.00;;;12.78;61.23;96774.00;5032795;28;20059;-38
2023/04/11 00:23:32;;;;;;;4.28;1.15;;;13.10;91.00;;;12.74;61.31;96775.13;5032915;28;20027;-38
2023/04/11 00:25:58;;;;;;;2.90;1.25;;;13.00;91.10;;;12.70;62.56;96780.66;5034882;28;20029;-38
2023/04/11 00:28:24;;;;;;;1.48;0.93;;;13.00;91.30;;;12.69;63.30;96779.81;5034191;28;20075;-39
2023/04/11 00:30:49;;;;;;;1.33;0.98;;;13.00;91.60;;;12.65;62.86;96780.03;5030205;28;20051;-38
2023/04/11 00:33:15;;;;;;;4.63;1.10;;;13.00;91.60;;;12.68;62.86;96772.78;5028825;28;20558;-38
2023/04/11 00:35:41;;;;;;;2.60;0.90;;;13.00;91.60;;;12.71;63.46;96769.16;5024803;28;20036;-38
2023/04/11 00:38:07;;;;;;;2.67;1.10;;;13.10;91.80;;;12.77;63.00;96767.00;5027876;28;20037;-38
2023/04/11 00:40:33;;;;;;;2.13;1.20;;;13.10;91.70;;;12.87;61.76;96771.78;5029102;28;20036;-38
2023/04/11 00:42:58;;;;;;;4.38;1.48;;;13.10;91.50;;;12.90;61.85;96780.41;5028524;28;20426;-39
2023/04/11 00:45:25;;;;;;;5.57;1.63;;;13.20;91.40;;;12.90;62.27;96780.41;5027091;28;20033;-39
2023/04/11 00:47:51;;;;;;;4.10;1.40;;;13.20;91.60;;;12.87;62.67;96762.06;5036916;28;20056;-38
2023/04/11 00:50:17;;;;;;;2.53;1.30;;;13.20;91.70;;;12.89;62.83;96762.81;5038148;28;20033;-38
2023/04/11 00:52:47;;;;;;;3.88;1.10;;;13.20;91.70;;;12.88;63.62;96762.91;5019516;28;20033;-39
2023/04/11 00:55:13;;;;;;;2.97;1.13;;;13.20;92.00;;;12.90;65.15;96756.59;5027838;28;20037;-39
2023/04/11 00:57:40;;;;;;;2.92;1.10;;;13.20;92.40;;;12.89;66.17;96759.31;5029935;28;20034;-39
2023/04/11 01:00:09;;;;;;;2.53;1.27;;;13.20;92.70;;;12.83;69.38;96754.34;5031299;28;21109;-38
2023/04/11 01:02:36;;;;;;;2.22;1.10;;;13.20;93.40;;;12.79;66.34;96749.25;5027733;28;20155;-39
2023/04/11 01:05:06;;;;;;;2.55;1.35;;;13.20;92.90;;;12.80;65.99;96753.59;5019139;28;20557;-39
2023/04/11 01:07:34;;;;;;;2.20;1.17;;;13.10;92.70;;;12.84;64.72;96753.44;5018609;28;20048;-39
2023/04/11 01:10:01;;;;;;;3.60;1.30;;;13.10;92.40;;;12.81;65.30;96759.72;5014341;28;20424;-39
2023/04/11 01:12:28;;;;;;;2.63;1.10;;;13.20;92.50;;;12.85;64.92;96766.56;5017179;28;20799;-39
2023/04/11 01:14:54;;;;;;;1.92;1.13;;;13.20;92.70;;;12.87;67.42;96758.56;5012475;28;20232;-39
2023/04/11 01:17:20;;;;;;;3.58;1.40;;;13.20;93.20;;;12.91;67.41;96768.03;5022988;28;20032;-39
2023/04/11 01:19:46;;;;;;;2.53;1.20;;;13.20;93.30;;;12.88;70.17;96773.47;5016348;28;20124;-39
2023/04/11 01:22:16;;;;;;;4.43;1.45;;;13.20;93.80;;;12.86;68.00;96770.06;5016213;28;20527;-39
2023/04/11 01:24:42;;;;;;;2.15;1.10;;;13.20;93.70;;;12.88;68.76;96769.03;5011384;28;20775;-38
2023/04/11 01:27:09;;;;;;;2.85;1.20;;;13.20;93.70;;;12.94;68.04;96767.88;5041728;28;20029;-38
2023/04/11 01:29:35;;;;;;;1.98;1.20;;;13.20;93.60;;;12.88;71.33;96776.13;5013483;28;20047;-38
2023/04/11 01:32:01;;;;;;;4.65;1.40;;;13.20;94.10;;;12.74;83.36;96787.47;5018040;28;20119;-39
2023/04/11 01:34:28;;;;;;;3.42;1.10;;;13.10;96.20;;;12.56;87.76;96791.97;5015347;28;20059;-38
2023/04/11 01:36:54;;;;;;;2.10;1.55;;;12.90;97.20;;;12.45;93.67;96794.38;5019801;28;20500;-39
2023/04/11 01:39:19;;;;;;;3.53;1.42;;;12.80;97.80;;;12.23;93.70;96782.28;5021663;28;20041;-39
2023/04/11 01:41:46;;;;;;;4.38;1.17;;;12.60;98.70;;;12.10;99.23;96778.63;5020915;28;20083;-39
2023/04/11 01:44:12;;;;;;;3.08;1.30;;;12.50;99.80;;;11.88;100.00;96758.56;5005879;28;20481;-39
2023/04/11 01:46:38;;;;;;;2.22;1.38;;;12.30;99.90;;;11.89;100.00;96768.19;5011465;28;20033;-39
2023/04/11 01:49:05;;;;;;;2.22;1.27;;;12.20;99.90;;;11.76;100.00;96777.69;5021167;28;20028;-39
2023/04/11 01:51:31;;;;;;;2.60;1.67;;;12.10;99.90;;;11.62;100.00;96792.44;5016625;28;20089;-39
2023/04/11 01:53:57;;;;;;;3.65;1.58;;;12.10;99.90;;;11.71;100.00;96790.28;5010887;28;20060;-39
2023/04/11 01:56:23;;;;;;;6.95;1.50;;;12.10;99.90;;;11.68;100.00;96798.34;5013734;28;20036;-39
2023/04/11 01:58:49;;;;;;;4.35;1.60;;;12.10;99.90;;;11.56;100.00;96802.50;5002868;28;20504;-39
2023/04/11 02:01:19;;;;;;;2.08;1.48;;;12.00;99.90;;;11.43;100.00;96803.09;5010360;28;20098;-39
2023/04/11 02:03:45;;;;;;;2.42;1.40;;;11.80;99.90;;;11.31;100.00;96802.84;5012501;28;21784;-38
2023/04/11 02:06:11;;;;;;;3.40;1.48;;;11.70;99.90;;;11.21;100.00;96799.81;5011525;28;20033;-39
2023/04/11 02:08:36;;;;;;;3.33;1.63;;;11.60;99.90;;;11.10;100.00;96825.88;5012400;28;20511;-39
2023/04/11 02:11:02;;;;;;;4.70;1.85;;;11.50;99.90;;;10.93;100.00;96835.44;5012640;28;20029;-39
2023/04/11 02:13:28;;;;;;;2.13;1.40;;;11.40;99.90;;;10.88;100.00;96832.16;5012824;28;20124;-39
2023/04/11 02:15:53;;;;;;;2.15;0.93;;;11.30;99.90;;;10.63;100.00;96837.72;5014250;28;22035;-39
2023/04/11 02:18:20;;;;;;;2.65;0.80;;;11.20;99.90;;;10.38;100.00;96838.84;5018227;28;20513;-39
2023/04/11 02:20:46;;;;;;;1.45;0.70;;;11.00;99.90;;;10.20;100.00;96844.91;5006605;28;20592;-39
2023/04/11 02:23:13;;;;;;;1.30;0.60;;;10.80;99.90;;;9.90;100.00;96869.03;5010147;28;20413;-39
2023/04/11 02:25:38;;;;;;;1.73;0.63;;;10.50;99.90;;;9.70;100.00;96877.75;5011640;28;20040;-39
2023/04/11 02:28:04;;;;;;;4.25;0.90;;;10.30;99.90;;;9.48;100.00;96867.28;5019323;28;20033;-39
2023/04/11 02:30:30;;;;;;;0.85;0.60;;;10.00;99.90;;;9.25;100.00;96871.69;5012476;28;20319;-39
2023/04/11 02:32:55;;;;;;;1.30;0.70;;;9.80;99.90;;;9.13;100.00;96866.91;5010127;28;20208;-39
2023/04/11 02:35:21;;;;;;;2.65;0.90;;;9.60;99.90;;;9.00;100.00;96842.88;5020888;28;20563;-39
2023/04/11 02:37:47;;;;;;;1.55;0.82;;;9.50;99.90;;;8.87;100.00;96829.34;5017594;28;20091;-39
2023/04/11 02:40:12;;;;;;;4.25;0.93;;;9.40;99.90;;;8.76;100.00;96835.03;5022237;28;20033;-39
2023/04/11 02:42:41;;;;;;;3.17;1.00;;;9.30;99.90;;;8.67;100.00;96837.13;5015773;28;20114;-39
2023/04/11 02:45:08;;;;;;;2.13;0.82;;;9.20;99.90;;;8.64;100.00;96845.16;5000522;22;20037;-38
2023/04/11 02:47:33;;;;;;;1.25;0.95;;;9.10;99.90;;;8.54;100.00;96853.41;4967296;28;20347;-38
2023/04/11 02:49:59;;;;;;;1.73;0.70;;;9.00;99.90;;;8.44;100.00;96843.28;4980657;28;20029;-37
2023/04/11 02:52:25;;;;;;;4.35;0.90;;;9.00;99.90;;;8.48;100.00;96852.75;4977336;28;20096;-37
2023/04/11 02:54:51;;;;;;;2.50;1.00;;;9.00;99.90;;;8.43;100.00;96854.69;4987162;28;20435;-38
2023/04/11 02:57:16;;;;;;;4.90;1.13;;;8.90;99.90;;;8.45;100.00;96858.13;4977059;28;21048;-37
2023/04/11 02:59:42;;;;;;;3.80;0.80;;;8.90;99.90;;;8.35;100.00;96857.59;4986092;28;20038;-37
2023/04/11 03:02:08;;;;;;;1.30;0.60;;;8.90;99.90;;;8.27;100.00;96855.22;4982844;28;20482;-37
2023/04/11 03:04:33;;;;;;;3.85;1.00;;;8.80;99.90;;;8.29;100.00;96863.03;4977641;28;20034;-37
2023/04/11 03:06:59;;;;;;;3.45;0.73;;;8.70;99.90;;;8.27;100.00;96862.25;4982650;28;20041;-38
2023/04/11 03:09:25;;;;;;;3.45;0.80;;;8.70;99.90;;;8.18;100.00;96845.94;4979080;28;20029;-38
2023/04/11 03:11:50;;;;;;;3.00;1.00;;;8.70;99.90;;;8.16;100.00;96860.00;4980068;28;20035;-38
2023/04/11 03:14:16;;;;;;;2.90;1.00;;;8.60;99.90;;;8.10;100.00;96860.25;4975382;28;20323;-38
2023/04/11 03:16:42;;;;;;;2.47;0.77;;;8.60;99.90;;;8.07;100.00;96861.19;4964519;28;20075;-38
2023/04/11 03:19:07;;;;;;;3.00;0.85;;;8.60;99.90;;;7.97;100.00;96857.19;4983913;28;20057;-38
2023/04/11 03:21:33;;;;;;;2.08;0.73;;;8.50;99.90;;;7.98;100.00;96869.41;4978552;28;20033;-38
2023/04/11 03:23:59;;;;;;;4.65;0.70;;;8.50;99.90;;;7.97;100.00;96868.56;4966103;28;20425;-38
2023/04/11 03:26:25;;;;;;;5.50;0.90;;;8.50;99.90;;;7.95;100.00;96873.00;4975391;28;20626;-37
2023/04/11 03:28:55;;;;;;;3.47;0.90;;;8.50;99.90;;;7.96;100.00;96864.19;4984465;28;20028;-38
2023/04/11 03:31:21;;;;;;;4.32;0.90;;;8.50;99.90;;;7.86;100.00;96833.94;4987777;28;20079;-38
2023/04/11 03:33:46;;;;;;;2.00;0.80;;;8.40;99.90;;;7.86;100.00;96835.69;4977886;28;20038;-38
2023/04/11 03:36:12;;;;;;;3.53;0.82;;;8.40;99.90;;;7.82;100.00;96843.69;4991749;28;20033;-38
2023/04/11 03:38:38;;;;;;;3.58;0.82;;;8.30;99.90;;;7.76;100.00;96824.69;4991277;28;20112;-38
2023/04/11 03:41:04;;;;;;;2.00;1.00;;;8.30;99.90;;;7.78;100.00;96818.44;4974109;28;20034;-38
2023/04/11 03:43:30;;;;;;;3.40;0.90;;;8.30;99.90;;;7.78;100.00;96826.31;4989751;28;20756;-38
2023/04/11 03:45:56;;;;;;;2.58;1.02;;;8.30;99.90;;;7.75;100.00;96834.31;4989143;28;20049;-38
2023/04/11 03:48:25;;;;;;;3.13;1.25;;;8.30;99.90;;;7.74;100.00;96837.84;4994532;28;20505;-38
2023/04/11 03:50:51;;;;;;;2.95;1.13;;;8.20;99.90;;;7.67;100.00;96832.88;4987735;28;20076;-38
2023/04/11 03:53:17;;;;;;;3.45;1.00;;;8.20;99.90;;;7.65;100.00;96843.41;4991115;28;20026;-38
2023/04/11 03:55:43;;;;;;;3.38;0.80;;;8.20;99.90;;;7.63;100.00;96838.22;4977811;28;20521;-38
2023/04/11 03:58:10;;;;;;;2.83;0.93;;;8.20;99.90;;;7.68;100.00;96847.69;4989220;28;20489;-38
2023/04/11 04:00:35;;;;;;;2.92;0.75;;;8.20;99.90;;;7.69;100.00;96854.66;4980147;28;20088;-38
2023/04/11 04:03:01;;;;;;;4.95;0.95;;;8.20;99.90;;;7.73;100.00;96862.38;4990200;28;20026;-37
2023/04/11 04:05:27;;;;;;;4.63;1.20;;;8.20;99.90;;;7.72;100.00;96873.78;4981103;28;20549;-38
2023/04/11 04:07:53;;;;;;;4.00;1.23;;;8.20;99.90;;;7.72;100.00;96867.69;4992867;28;20029;-38
2023/04/11 04:10:18;;;;;;;2.30;0.80;;;8.30;99.90;;;7.70;100.00;96874.72;4993159;28;20046;-38
2023/04/11 04:12:44;;;;;;;3.90;1.10;;;8.30;99.90;;;7.71;100.00;96872.06;4988929;28;20119;-38
2023/04/11 04:15:13;;;;;;;6.93;1.27;;;8.20;99.90;;;7.73;100.00;96856.25;4979635;28;20029;-38
2023/04/11 04:17:40;;;;;;;4.53;1.25;;;8.30;99.90;;;7.73;100.00;96870.25;4981231;28;20022;-38
2023/04/11 04:20:10;;;;;;;4.03;1.10;;;8.20;99.90;;;7.64;100.00;96860.06;4977578;28;20033;-38
2023/04/11 04:22:38;;;;;;;4.63;1.13;;;8.30;99.90;;;7.75;100.00;96878.94;4985224;28;20029;-38
2023/04/11 04:25:05;;;;;;;4.82;1.17;;;8.20;99.90;;;7.73;100.00;96875.50;4983308;28;20851;-38
2023/04/11 04:27:31;;;;;;;4.18;1.33;;;8.30;99.90;;;7.72;100.00;96876.41;4986749;28;20030;-37
2023/04/11 04:29:57;;;;;;;3.38;1.40;;;8.30;99.90;;;7.72;100.00;96881.66;4977876;28;20033;-38
2023/04/11 04:32:23;;;;;;;3.72;1.10;;;8.30;99.90;;;7.71;100.00;96889.59;4989718;28;20030;-38
2023/04/11 04:34:54;;;;;;;3.53;1.23;;;8.30;99.90;;;7.67;100.00;96893.22;4993552;28;20132;-38
2023/04/11 04:37:24;;;;;;;4.07;1.30;;;8.20;99.90;;;7.68;100.00;96906.31;4993916;28;20037;-38
2023/04/11 04:39:56;;;;;;;4.85;1.30;;;8.20;99.90;;;7.70;100.00;96907.13;4992966;28;20026;-38
2023/04/11 04:42:27;;;;;;;5.68;1.23;;;8.20;99.90;;;7.69;100.00;96915.88;4995778;28;20106;-38
2023/04/11 04:44:55;;;;;;;3.38;0.98;;;8.20;99.90;;;7.64;100.00;96912.53;4993065;28;20494;-37
2023/04/11 04:47:29;;;;;;;4.35;1.20;;;8.20;99.90;;;7.65;100.00;96928.25;4999360;28;20029;-37
2023/04/11 04:49:55;;;;;;;2.15;0.88;;;8.10;99.90;;;7.55;100.00;96947.81;4992772;28;20041;-38
2023/04/11 04:52:23;;;;;;;3.72;1.00;;;8.10;99.90;;;7.50;100.00;96928.75;4990414;28;23218;-37
2023/04/11 04:54:48;;;;;;;2.47;0.70;;;8.00;99.90;;;7.49;100.00;96929.66;4980986;28;20029;-37
2023/04/11 04:57:14;;;;;;;3.47;0.80;;;8.10;99.90;;;7.48;100.00;96948.06;4986509;28;20409;-37
2023/04/11 04:59:40;;;;;;;3.30;0.82;;;8.00;99.90;;;7.47;100.00;96946.38;4983730;28;20121;-37
2023/04/11 05:02:05;;;;;;;2.50;0.80;;;8.00;99.90;;;7.38;100.00;96952.75;4980185;28;20367;-37
2023/04/11 05:04:32;;;;;;;4.05;0.85;;;7.90;99.90;;;7.33;100.00;96978.28;4982792;28;20030;-37
2023/04/11 05:06:59;;;;;;;3.05;0.65;;;7.90;99.90;;;7.25;100.00;96989.00;4989763;28;20030;-37
2023/04/11 05:09:25;;;;;;;2.78;0.75;;;7.80;99.90;;;7.21;100.00;96980.38;4983707;28;20065;-37
2023/04/11 05:11:50;;;;;;;6.72;3.35;;;7.80;99.90;;;7.10;100.00;96998.16;4989453;28;20037;-37
2023/04/11 05:14:16;;;;;;;2.45;1.00;;;7.70;99.90;;;7.01;100.00;96998.44;4995498;28;20089;-38
2023/04/11 05:16:42;;;;;;;2.83;0.80;;;7.60;99.90;;;6.85;100.00;97004.13;4994058;28;20037;-38
2023/04/11 05:19:08;;;;;;;1.65;0.68;;;7.40;99.90;;;6.74;100.00;97005.34;4991310;28;20044;-37
2023/04/11 05:21:36;;;;;;;3.03;0.80;;;7.40;99.90;;;6.71;100.00;97002.78;4985488;28;20022;-37
2023/04/11 05:24:02;;;;;;;5.43;1.13;;;7.30;99.90;;;6.45;100.00;96978.19;4989122;28;20026;-37
2023/04/11 05:26:28;;;;;;;4.75;0.90;;;7.30;99.90;;;6.54;100.00;97022.47;4995428;28;20044;-38
2023/04/11 05:28:54;;;;;;;2.70;0.80;;;7.20;99.90;;;6.46;100.00;97003.47;4991716;28;20738;-37
2023/04/11 05:31:20;;;;;;;3.15;0.88;;;7.00;99.90;;;6.46;100.00;97003.47;4993825;28;20306;-37
2023/04/11 05:33:46;;;;;;;5.25;0.88;;;7.00;99.90;;;6.38;100.00;96989.72;4995987;28;20112;-37
2023/04/11 05:36:13;;;;;;;2.13;0.80;;;6.90;99.90;;;6.37;100.00;96988.88;4979195;28;20037;-37
2023/04/11 05:38:43;;;;;;;6.07;0.70;;;6.90;99.90;;;6.29;100.00;96988.22;4990096;28;20037;-38
2023/04/11 05:41:09;;;;;;;3.78;1.02;;;6.80;99.90;;;6.30;100.00;97000.41;4989257;28;20505;-37
2023/04/11 05:43:36;;;;;;;4.80;0.80;;;6.80;99.90;;;6.28;100.00;96991.72;4994677;28;20029;-37
2023/04/11 05:46:02;;;;;;;5.22;0.88;;;6.80;99.90;;;6.28;100.00;96986.47;4991277;28;20160;-37
2023/04/11 05:48:28;;;;;;;3.35;0.82;;;6.80;99.90;;;6.29;100.00;96993.44;4994258;28;20053;-37
2023/04/11 05:50:56;;;;;;;3.53;0.70;;;6.80;99.90;;;6.25;100.00;96984.81;4984147;28;20091;-37
2023/04/11 05:53:22;;;;;;;2.97;0.90;;;6.80;99.90;;;6.23;100.00;96978.75;4987951;28;20038;-37
2023/04/11 05:55:47;;;;;;;5.05;0.90;;;6.80;99.90;;;6.30;100.00;96987.31;4966401;28;20061;-37
2023/04/11 05:58:13;;;;;;;2.28;0.70;;;6.80;99.90;;;6.31;100.00;96997.72;4996710;28;20034;-37
2023/04/11 06:00:39;;;;;;;5.53;0.70;;;6.90;99.90;;;6.29;100.00;96991.69;4986534;28;20512;-37
2023/04/11 06:03:06;;;;;;;2.83;0.82;;;6.90;99.90;;;6.35;100.00;97001.13;4996552;28;20022;-37
2023/04/11 06:05:33;;;;;;;1.70;0.70;;;6.90;99.90;;;6.34;100.00;97012.53;4992052;28;20624;-37
2023/04/11 06:08:01;;;;;;;2.95;0.98;;;6.90;99.90;;;6.44;100.00;97010.50;4992874;28;20112;-37
2023/04/11 06:10:28;;;;;;;3.13;1.25;;;7.00;99.90;;;6.44;100.00;97007.88;4988217;28;20057;-38
2023/04/11 06:12:54;;;;;;;1.90;0.75;;;7.00;99.90;;;6.46;100.00;97006.06;4989582;28;20227;-38
2023/04/11 06:15:22;;;;;;;2.55;0.80;;;7.00;99.90;;;6.52;100.00;97008.56;4992762;28;20029;-37
2023/04/11 06:17:48;;;;;;;5.32;1.23;;;7.10;99.90;;;6.48;100.00;97018.25;4993134;28;20116;-37
2023/04/11 06:20:15;;;;;;;2.65;0.80;;;7.10;99.90;;;6.50;100.00;97019.06;4993468;28;20046;-37
2023/04/11 06:22:41;;;;;;;5.00;1.08;;;7.10;99.90;;;6.51;100.00;97022.53;4986516;28;20037;-38
2023/04/11 06:25:08;;;;;;;4.00;0.60;;;7.10;99.90;;;6.57;100.00;97018.88;4994095;28;20036;-37
2023/04/11 06:27:33;;;;;;;5.32;0.90;;;7.10;99.90;;;6.42;100.00;96976.50;4993074;28;20026;-37
2023/04/11 06:30:00;;;;;;;4.40;0.90;;;7.30;99.90;;;6.79;100.00;97029.66;4971073;28;20478;-37
2023/04/11 06:32:26;;;;;;;1.88;0.85;;;7.30;99.90;;;6.92;100.00;97023.16;4989612;28;20030;-37
2023/04/11 06:34:52;;;;;;;6.10;0.88;;;7.40;99.90;;;6.98;100.00;97023.00;4985248;28;20541;-37
2023/04/11 06:37:17;;;;;;;1.63;0.70;;;7.60;99.90;;;7.04;100.00;97041.16;4993975;28;20279;-38
2023/04/11 06:39:43;;;;;;;1.65;0.70;;;7.60;99.90;;;7.07;100.00;97051.56;4991257;28;20026;-37
2023/04/11 06:42:09;;;;;;;2.05;0.60;;;7.70;99.90;;;7.13;100.00;97057.56;4983603;28;20034;-37
2023/04/11 06:44:35;;;;;;;1.73;0.68;;;7.70;99.90;;;7.17;100.00;97054.78;4985092;28;20592;-37
2023/04/11 06:47:00;;;;;;;3.80;0.70;;;7.80;99.90;;;7.15;100.00;97040.00;4985229;28;20601;-37
2023/04/11 06:49:30;;;;;;;10.00;1.92;;;7.80;99.90;;;7.20;100.00;97057.31;4996016;28;20033;-37
2023/04/11 06:51:56;;;;;;;3.00;0.70;;;7.90;99.90;;;7.31;100.00;97061.41;4988514;28;20026;-37
2023/04/11 06:54:22;;;;;;;2.20;0.50;;;8.00;99.90;;;7.42;100.00;97065.41;4987621;28;20030;-37
2023/04/11 06:56:50;;;;;;;3.45;0.82;;;8.00;99.90;;;7.53;100.00;97057.22;4992659;28;20129;-37
2023/04/11 06:59:20;;;;;;;4.90;0.80;;;8.10;99.90;;;7.62;100.00;97074.44;4995079;28;20030;-37
2023/04/11 07:01:47;;;;;;;5.40;0.75;;;8.20;99.90;;;7.61;100.00;97080.63;4989815;28;20033;-36
2023/04/11 07:04:13;;;;;;;3.10;0.75;;;8.30;99.90;;;7.75;100.00;97075.81;4990956;28;20054;-37
2023/04/11 07:06:39;;;;;;;2.28;0.70;;;8.40;99.90;;;7.82;100.00;97074.72;4995497;28;20044;-36
2023/04/11 07:09:05;;;;;;;5.25;0.95;;;8.50;99.90;;;7.92;100.00;97080.53;4991324;28;20121;-36
2023/04/11 07:11:31;;;;;;;2.42;0.70;;;8.60;99.90;;;8.17;100.00;97085.84;4995424;28;20044;-36
2023/04/11 07:13:59;;;;;;;3.75;0.80;;;8.80;99.90;;;8.32;100.00;97081.84;4977776;28;20065;-37
2023/04/11 07:16:25;;;;;;;2.88;0.80;;;8.90;99.90;;;8.41;100.00;97072.81;4994639;28;20034;-37
2023/04/11 07:18:54;;;;;;;1.73;0.65;;;9.10;99.90;;;8.51;100.00;97099.69;4991011;28;20097;-37
2023/04/11 07:21:20;;;;;;;4.20;1.05;;;9.20;99.90;;;8.64;100.00;97108.03;4992350;28;20045;-37
2023/04/11 07:23:46;;;;;;;3.95;0.90;;;9.20;99.90;;;8.69;100.00;97114.00;4990698;28;20028;-37
2023/04/11 07:26:15;;;;;;;2.13;0.77;;;9.30;99.90;;;8.70;100.00;97116.53;4997069;28;20105;-37
2023/04/11 07:28:43;;;;;;;4.85;0.88;;;9.30;99.90;;;8.66;100.00;97119.34;4996470;28;20112;-37
2023/04/11 07:31:10;;;;;;;4.07;0.80;;;9.30;99.90;;;8.69;100.00;97120.09;4988474;28;20037;-37
2023/04/11 07:33:36;;;;;;;3.13;1.00;;;9.30;99.90;;;8.82;100.00;97109.16;4993219;28;20040;-37
2023/04/11 07:36:03;;;;;;;2.53;0.80;;;9.40;99.90;;;9.20;100.00;97120.94;4991974;28;20057;-37
2023/04/11 07:38:29;;;;;;;3.40;1.00;;;9.70;99.90;;;9.17;100.00;97123.72;4984231;28;20030;-37
2023/04/11 07:40:56;;;;;;;3.35;0.98;;;9.80;99.90;;;9.18;100.00;97118.38;4989540;28;20037;-36
2023/04/11 07:43:23;;;;;;;5.60;0.90;;;9.90;99.90;;;9.29;100.00;97117.13;4989839;28;20107;-37
2023/04/11 07:45:49;;;;;;;3.30;1.10;;;10.00;99.90;;;9.46;100.00;97132.34;4990526;28;20029;-37
2023/04/11 07:48:14;;;;;;;8.43;1.30;;;10.10;99.90;;;9.36;100.00;97110.72;4992996;28;20683;-37
2023/04/11 07:50:40;;;;;;;4.20;1.27;;;10.10;99.90;;;9.49;100.00;97113.78;4989339;28;20037;-37
2023/04/11 07:53:06;;;;;;;8.02;1.40;;;10.10;99.90;;;9.20;100.00;97115.69;4991277;28;20041;-37
2023/04/11 07:55:32;;;;;;;4.88;1.13;;;10.10;99.90;;;9.43;100.00;97138.53;4993299;28;20577;-36
2023/04/11 07:57:58;;;;;;;3.88;1.10;;;10.10;99.90;;;9.46;100.00;97124.44;4994262;28;20104;-36
2023/04/11 08:00:24;;;;;;;3.20;0.90;;;10.10;99.90;;;9.45;100.00;97112.16;4991372;28;20124;-37
2023/04/11 08:02:51;;;;;;;3.95;1.27;;;10.10;99.90;;;9.44;100.00;97123.59;4992512;28;20037;-37
2023/04/11 08:05:16;;;;;;;4.88;1.40;;;10.10;99.90;;;9.62;100.00;97130.84;4993053;28;20116;-37
2023/04/11 08:07:42;;;;;;;6.72;1.20;;;10.20;99.90;;;9.57;100.00;97117.00;4993291;28;20041;-37
2023/04/11 08:10:08;;;;;;;5.28;1.02;;;10.40;99.90;;;9.71;100.00;97141.03;4992432;28;20460;-37
2023/04/11 08:12:34;;;;;;;6.78;1.35;;;10.50;99.90;;;9.74;100.00;97150.56;4999986;28;20253;-37
2023/04/11 08:15:00;;;;;;;7.32;1.25;;;10.50;99.90;;;9.92;100.00;97122.66;4993430;28;20037;-37
2023/04/11 08:17:27;;;;;;;6.15;1.20;;;10.60;99.90;;;9.96;100.00;97141.84;4996044;28;20452;-37
2023/04/11 08:19:56;;;;;;;11.73;1.50;;;10.60;99.90;;;10.11;100.00;97133.38;4996108;28;20084;-37
2023/04/11 08:22:22;;;;;;;6.50;1.27;;;10.80;99.90;;;10.10;100.00;97143.06;4993112;28;20634;-37
2023/04/11 08:24:48;;;;;;;5.07;1.10;;;10.80;99.90;;;9.97;100.00;97139.16;4992826;28;20057;-37
2023/04/11 08:27:14;;;;;;;4.15;1.20;;;10.70;99.90;;;10.13;100.00;97147.34;4985336;28;20541;-37
2023/04/11 08:29:40;;;;;;;4.30;1.20;;;10.80;99.90;;;10.15;100.00;97148.13;4984661;28;20046;-37
2023/04/11 08:32:05;;;;;;;7.63;1.15;;;10.80;99.90;;;10.17;100.00;97150.72;4990220;28;20029;-37
2023/04/11 08:34:32;;;;;;;6.10;0.93;;;10.90;99.90;;;10.19;100.00;97154.13;4997678;28;20405;-37
2023/04/11 08:36:57;;;;;;;6.18;1.30;;;10.90;99.90;;;10.11;100.00;97151.81;4993266;28;20497;-37
2023/04/11 08:39:23;;;;;;;7.78;1.42;;;10.90;99.90;;;9.99;98.39;97163.66;4994578;28;20045;-37
2023/04/11 08:41:50;;;;;;;4.25;1.20;;;10.70;99.90;;;9.97;99.12;97151.47;4990231;28;20088;-37
2023/04/11 08:44:15;;;;;;;8.20;1.60;;;10.70;99.90;;;10.08;100.00;97150.13;5012926;23;20056;-38
2023/04/11 08:46:42;;;;;;;8.43;1.52;;;10.70;99.90;;;10.15;100.00;97115.66;5016857;28;20037;-37
2023/04/11 08:49:09;;;;;;;5.82;1.10;;;10.90;99.90;;;10.36;95.37;97157.00;5014792;28;20043;-38
2023/04/11 08:51:35;;;;;;;3.42;1.05;;;11.00;99.90;;;10.20;86.12;97142.69;5012824;28;20021;-38
2023/04/11 08:54:04;;;;;;;5.53;1.02;;;10.90;99.90;;;10.32;92.31;97158.06;5011191;28;20532;-38
2023/04/11 08:56:32;;;;;;;8.48;1.17;;;10.90;99.90;;;9.99;82.69;97158.41;5014137;28;20107;-38
2023/04/11 08:58:58;;;;;;;6.95;1.10;;;10.80;99.90;;;10.12;95.40;97138.59;5012607;28;20114;-38
2023/04/11 09:01:32;;;;;;;7.00;1.25;;;10.80;99.90;;;10.14;89.95;97151.69;5019443;28;20581;-38
2023/04/11 09:04:00;;;;;;;4.35;1.23;;;10.80;99.90;;;10.25;88.79;97164.44;5011346;28;20049;-38
2023/04/11 09:06:31;;;;;;;4.07;0.93;;;10.90;99.90;;;10.45;82.35;97172.44;4994000;28;20032;-38
2023/04/11 09:09:05;;;;;;;8.70;1.20;;;11.10;99.90;;;10.53;79.98;97155.47;5008563;28;20036;-38
2023/04/11 09:11:50;;;;;;;5.38;1.33;;;11.20;99.90;;;10.67;77.99;97156.59;5007037;28;20037;-38
2023/04/11 09:14:16;;;;;;;4.95;1.13;;;11.30;99.90;;;10.53;74.27;97166.00;5000894;28;20045;-38
2023/04/11 09:17:00;;;;;;;7.75;0.90;;;11.30;99.90;;;10.48;74.59;97151.25;4998220;28;20037;-38
2023/04/11 09:19:29;;;;;;;7.40;1.13;;;11.20;99.90;;;10.77;84.98;97161.53;5009965;28;20022;-38
2023/04/11 09:22:01;;;;;;;2.88;0.90;;;11.40;99.90;;;10.96;78.81;97164.22;5000151;28;20071;-38
2023/04/11 09:24:30;;;;;;;7.25;1.52;;;11.60;99.90;;;10.91;76.79;97163.56;5011597;28;20373;-38
2023/04/11 09:27:15;;;;;;;4.30;1.25;;;11.60;99.90;;;10.58;77.40;97169.31;4990711;28;20128;-38
2023/04/11 09:29:47;;;;;;;10.15;1.52;;;11.40;99.90;;;10.29;72.40;97158.97;4986672;28;20033;-38
2023/04/11 09:32:32;;;;;;;3.85;0.85;;;11.10;99.90;;;10.25;81.11;97165.31;5002438;28;20029;-38
2023/04/11 09:35:11;;;;;;;5.10;1.45;;;10.90;99.90;;;10.14;76.59;97167.50;5005616;28;20045;-38
2023/04/11 09:37:57;;;;;;;4.93;1.52;;;10.80;99.90;;;10.33;81.08;97157.13;5006278;28;20037;-38
2023/04/11 09:40:30;;;;;;;4.25;1.40;;;11.00;99.90;;;10.60;81.96;97170.09;5010738;28;20068;-38
2023/04/11 09:43:01;;;;;;;7.78;1.10;;;11.20;99.90;;;10.50;76.55;97181.03;5004696;28;20064;-38
2023/04/11 09:45:30;;;;;;;4.45;1.20;;;11.20;99.90;;;10.32;75.27;97165.97;5004220;28;20030;-38
2023/04/11 09:47:58;;;;;;;4.63;1.10;;;11.00;99.90;;;10.07;72.37;97174.78;4994263;28;20385;-38
2023/04/11 09:50:25;;;;;;;4.13;0.98;;;10.80;99.90;;;10.09;78.09;97165.03;4987433;28;20167;-38
2023/04/11 09:52:52;;;;;;;3.70;1.05;;;10.70;99.90;;;10.17;73.00;97158.63;5003943;28;20478;-38
2023/04/11 09:55:24;;;;;;;6.82;1.63;;;10.80;99.90;;;10.46;73.13;97173.28;5010751;28;20037;-39
2023/04/11 09:57:52;;;;;;;2.78;1.00;;;11.10;99.90;;;10.46;69.60;97161.00;4999454;28;20040;-38
2023/04/11 10:00:31;;;;;;;5.75;1.40;;;11.10;99.90;;;10.52;71.98;97148.50;5004242;28;20060;-38
2023/04/11 10:02:57;;;;;;;6.05;1.27;;;11.20;99.90;;;10.61;70.35;97161.28;5003458;28;20038;-38
2023/04/11 10:05:28;;;;;;;5.00;1.42;;;11.20;99.90;;;10.59;70.34;97158.72;5003033;28;20033;-38
2023/04/11 10:08:31;;;;;;;7.43;1.30;;;11.20;99.90;;;10.79;75.20;97170.22;4989652;28;20057;-38
2023/04/11 10:10:59;;;;;;;5.78;1.52;;;11.40;99.90;;;10.86;72.39;97156.72;4982766;28;20855;-38
2023/04/11 10:13:44;;;;;;;5.47;1.15;;;11.50;99.90;;;11.05;68.93;97163.84;5003381;28;20107;-38
2023/04/11 10:16:12;;;;;;;4.88;1.10;;;11.70;99.90;;;11.31;70.87;97177.72;4993248;28;20132;-39
2023/04/11 10:18:52;;;;;;;3.53;1.13;;;11.90;99.90;;;11.29;69.03;97175.13;5008570;28;20394;-38
2023/04/11 10:21:33;;;;;;;8.38;1.50;;;12.10;99.90;;;11.55;70.35;97163.41;5003469;28;20053;-39
2023/04/11 10:24:08;;;;;;;6.22;1.40;;;12.20;99.90;;;11.77;69.63;97165.97;5003026;28;20018;-39